sensor_id;sensor_type;location;lat;lon;timestamp;P1;durP1;ratioP1;P2;durP2;ratioP2
12459;SDS011;6295;49.452;8.466;2023-09-12T03:14:57;12.20;;;10.90;;
12459;SDS011;6295;49.452;8.466;2023-09-12T03:18:59;14.00;;;11.60;;
12459;SDS011;6295;49.452;8.466;2023-09-12T03:23:02;12.60;;;10.50;;
12459;SDS011;6295;49.452;8.466;2023-09-12T03:27:04;12.00;;;10.80;;
12459;SDS011;6295;49.452;8.466;2023-09-12T03:31:08;11.67;;;10.33;;
12459;SDS011;6295;49.452;8.466;2023-09-12T03:35:12;11.77;;;10.57;;
12459;SDS011;6295;49.452;8.466;2023-09-12T03:39:14;12.07;;;10.73;;
12459;SDS011;6295;49.452;8.466;2023-09-12T03:43:16;12.40;;;11.00;;
12459;SDS011;6295;49.452;8.466;2023-09-12T03:47:20;12.90;;;11.50;;
12459;SDS011;6295;49.452;8.466;2023-09-12T03:51:22;13.00;;;11.57;;
12459;SDS011;6295;49.452;8.466;2023-09-12T03:55:24;13.00;;;11.53;;
12459;SDS011;6295;49.452;8.466;2023-09-12T03:59:26;13.53;;;11.80;;
12459;SDS011;6295;49.452;8.466;2023-09-12T04:03:30;13.60;;;11.07;;
12459;SDS011;6295;49.452;8.466;2023-09-12T04:07:32;13.30;;;11.90;;
12459;SDS011;6295;49.452;8.466;2023-09-12T04:11:34;13.93;;;11.23;;
12459;SDS011;6295;49.452;8.466;2023-09-12T04:15:36;14.43;;;12.73;;
12459;SDS011;6295;49.452;8.466;2023-09-12T04:19:40;14.73;;;12.27;;
12459;SDS011;6295;49.452;8.466;2023-09-12T04:23:42;14.37;;;12.07;;
12459;SDS011;6295;49.452;8.466;2023-09-12T04:27:44;13.53;;;12.23;;
12459;SDS011;6295;49.452;8.466;2023-09-12T04:31:46;14.90;;;12.97;;
12459;SDS011;6295;49.452;8.466;2023-09-12T04:35:50;14.07;;;12.63;;
12459;SDS011;6295;49.452;8.466;2023-09-12T04:39:52;13.83;;;12.33;;
12459;SDS011;6295;49.452;8.466;2023-09-12T04:43:54;16.87;;;13.30;;
12459;SDS011;6295;49.452;8.466;2023-09-12T04:47:58;15.63;;;12.67;;
12459;SDS011;6295;49.452;8.466;2023-09-12T04:52:02;15.53;;;13.57;;
12459;SDS011;6295;49.452;8.466;2023-09-12T04:56:05;14.67;;;13.17;;
12459;SDS011;6295;49.452;8.466;2023-09-12T05:00:10;14.97;;;13.47;;
12459;SDS011;6295;49.452;8.466;2023-09-12T05:04:13;15.60;;;13.03;;
12459;SDS011;6295;49.452;8.466;2023-09-12T05:08:17;14.80;;;13.27;;
12459;SDS011;6295;49.452;8.466;2023-09-12T05:12:19;15.73;;;14.07;;
12459;SDS011;6295;49.452;8.466;2023-09-12T05:16:23;14.47;;;12.87;;
12459;SDS011;6295;49.452;8.466;2023-09-12T05:20:30;17.33;;;13.77;;
12459;SDS011;6295;49.452;8.466;2023-09-12T05:24:36;15.07;;;13.57;;
12459;SDS011;6295;49.452;8.466;2023-09-12T05:28:38;14.60;;;13.20;;
12459;SDS011;6295;49.452;8.466;2023-09-12T05:32:40;15.17;;;13.57;;
12459;SDS011;6295;49.452;8.466;2023-09-12T05:36:42;16.67;;;13.60;;
12459;SDS011;6295;49.452;8.466;2023-09-12T05:40:46;14.83;;;13.33;;
12459;SDS011;6295;49.452;8.466;2023-09-12T05:44:50;15.23;;;13.60;;
12459;SDS011;6295;49.452;8.466;2023-09-12T05:48:53;15.03;;;12.87;;
12459;SDS011;6295;49.452;8.466;2023-09-12T05:52:56;15.30;;;13.67;;
12459;SDS011;6295;49.452;8.466;2023-09-12T05:57:01;15.87;;;13.33;;
12459;SDS011;6295;49.452;8.466;2023-09-12T06:01:04;15.27;;;12.97;;
12459;SDS011;6295;49.452;8.466;2023-09-12T06:05:06;14.97;;;13.47;;
12459;SDS011;6295;49.452;8.466;2023-09-12T06:09:09;15.20;;;13.00;;
12459;SDS011;6295;49.452;8.466;2023-09-12T06:13:12;14.27;;;12.67;;
12459;SDS011;6295;49.452;8.466;2023-09-12T06:17:14;15.13;;;13.63;;
12459;SDS011;6295;49.452;8.466;2023-09-12T06:21:16;15.13;;;13.00;;
12459;SDS011;6295;49.452;8.466;2023-09-12T06:25:19;17.23;;;14.70;;
12459;SDS011;6295;49.452;8.466;2023-09-12T06:29:23;15.50;;;13.80;;
12459;SDS011;6295;49.452;8.466;2023-09-12T06:33:25;15.97;;;13.83;;
12459;SDS011;6295;49.452;8.466;2023-09-12T06:37:28;15.67;;;14.07;;
12459;SDS011;6295;49.452;8.466;2023-09-12T06:41:30;15.63;;;14.00;;
12459;SDS011;6295;49.452;8.466;2023-09-12T06:45:35;15.00;;;13.50;;
12459;SDS011;6295;49.452;8.466;2023-09-12T06:49:37;14.87;;;13.30;;
12459;SDS011;6295;49.452;8.466;2023-09-12T06:53:40;16.07;;;12.77;;
12459;SDS011;6295;49.452;8.466;2023-09-12T06:57:43;14.00;;;11.90;;
12459;SDS011;6295;49.452;8.466;2023-09-12T07:01:49;13.43;;;12.10;;
12459;SDS011;6295;49.452;8.466;2023-09-12T07:05:52;12.70;;;11.40;;
12459;SDS011;6295;49.452;8.466;2023-09-12T07:09:54;12.53;;;11.23;;
12459;SDS011;6295;49.452;8.466;2023-09-12T07:13:56;12.70;;;11.37;;
12459;SDS011;6295;49.452;8.466;2023-09-12T07:18:01;12.70;;;11.00;;
12459;SDS011;6295;49.452;8.466;2023-09-12T07:22:03;13.37;;;11.70;;
12459;SDS011;6295;49.452;8.466;2023-09-12T07:26:05;13.90;;;10.90;;
12459;SDS011;6295;49.452;8.466;2023-09-12T07:30:13;12.97;;;11.10;;
12459;SDS011;6295;49.452;8.466;2023-09-12T07:34:17;12.87;;;10.67;;
12459;SDS011;6295;49.452;8.466;2023-09-12T07:38:19;11.37;;;10.27;;
12459;SDS011;6295;49.452;8.466;2023-09-12T07:42:22;14.00;;;10.77;;
12459;SDS011;6295;49.452;8.466;2023-09-12T07:46:25;11.63;;;10.50;;
12459;SDS011;6295;49.452;8.466;2023-09-12T07:50:30;11.60;;;10.40;;
12459;SDS011;6295;49.452;8.466;2023-09-12T07:54:32;11.97;;;10.67;;
12459;SDS011;6295;49.452;8.466;2023-09-12T07:58:34;11.97;;;10.70;;
12459;SDS011;6295;49.452;8.466;2023-09-12T08:02:37;11.33;;;10.13;;
12459;SDS011;6295;49.452;8.466;2023-09-12T08:06:42;12.07;;;10.43;;
12459;SDS011;6295;49.452;8.466;2023-09-12T08:10:47;11.37;;;10.17;;
12459;SDS011;6295;49.452;8.466;2023-09-12T08:14:51;11.80;;;10.70;;
12459;SDS011;6295;49.452;8.466;2023-09-12T08:18:54;10.87;;;9.93;;
12459;SDS011;6295;49.452;8.466;2023-09-12T08:23:00;11.57;;;10.40;;
12459;SDS011;6295;49.452;8.466;2023-09-12T08:27:05;12.30;;;10.63;;
12459;SDS011;6295;49.452;8.466;2023-09-12T08:31:10;12.13;;;10.37;;
12459;SDS011;6295;49.452;8.466;2023-09-12T08:35:15;11.63;;;10.43;;
12459;SDS011;6295;49.452;8.466;2023-09-12T08:39:24;11.27;;;10.07;;
12459;SDS011;6295;49.452;8.466;2023-09-12T08:43:30;11.60;;;10.40;;
12459;SDS011;6295;49.452;8.466;2023-09-12T08:47:36;12.40;;;11.20;;
12459;SDS011;6295;49.452;8.466;2023-09-12T08:51:43;12.83;;;11.63;;
12459;SDS011;6295;49.452;8.466;2023-09-12T08:55:50;13.10;;;11.70;;
12459;SDS011;6295;49.452;8.466;2023-09-12T08:59:55;13.60;;;12.10;;
12459;SDS011;6295;49.452;8.466;2023-09-12T09:03:57;12.97;;;11.67;;
12459;SDS011;6295;49.452;8.466;2023-09-12T09:08:00;13.30;;;12.10;;
12459;SDS011;6295;49.452;8.466;2023-09-12T09:12:09;13.73;;;12.43;;
12459;SDS011;6295;49.452;8.466;2023-09-12T09:16:13;14.13;;;12.60;;
12459;SDS011;6295;49.452;8.466;2023-09-12T09:20:21;14.50;;;12.30;;
12459;SDS011;6295;49.452;8.466;2023-09-12T09:24:24;13.37;;;11.97;;
12459;SDS011;6295;49.452;8.466;2023-09-12T09:28:28;13.07;;;11.63;;
12459;SDS011;6295;49.452;8.466;2023-09-12T09:32:30;13.43;;;11.73;;
12459;SDS011;6295;49.452;8.466;2023-09-12T09:36:32;14.20;;;12.07;;
12459;SDS011;6295;49.452;8.466;2023-09-12T09:40:34;13.37;;;12.07;;
12459;SDS011;6295;49.452;8.466;2023-09-12T09:44:39;13.07;;;11.87;;
12459;SDS011;6295;49.452;8.466;2023-09-12T09:48:42;13.20;;;11.90;;
12459;SDS011;6295;49.452;8.466;2023-09-12T09:52:53;14.17;;;12.17;;
12459;SDS011;6295;49.452;8.466;2023-09-12T09:56:58;12.67;;;11.57;;
12459;SDS011;6295;49.452;8.466;2023-09-12T10:01:02;12.70;;;11.40;;
12459;SDS011;6295;49.452;8.466;2023-09-12T10:05:08;12.40;;;11.27;;
12459;SDS011;6295;49.452;8.466;2023-09-12T10:09:12;13.90;;;12.50;;
12459;SDS011;6295;49.452;8.466;2023-09-12T10:13:15;13.07;;;11.77;;
12459;SDS011;6295;49.452;8.466;2023-09-12T10:17:22;13.17;;;11.73;;
12459;SDS011;6295;49.452;8.466;2023-09-12T10:21:31;12.83;;;11.63;;
12459;SDS011;6295;49.452;8.466;2023-09-12T10:25:35;13.10;;;11.90;;
12459;SDS011;6295;49.452;8.466;2023-09-12T10:29:38;13.67;;;12.43;;
12459;SDS011;6295;49.452;8.466;2023-09-12T10:33:41;13.50;;;12.20;;
12459;SDS011;6295;49.452;8.466;2023-09-12T10:37:44;13.10;;;11.90;;
12459;SDS011;6295;49.452;8.466;2023-09-12T10:41:50;12.90;;;11.77;;
12459;SDS011;6295;49.452;8.466;2023-09-12T10:45:54;13.13;;;11.97;;
12459;SDS011;6295;49.452;8.466;2023-09-12T10:50:02;12.83;;;11.57;;
12459;SDS011;6295;49.452;8.466;2023-09-12T10:54:08;12.87;;;11.57;;
12459;SDS011;6295;49.452;8.466;2023-09-12T10:58:13;13.07;;;11.87;;
12459;SDS011;6295;49.452;8.466;2023-09-12T11:02:28;13.00;;;11.70;;
12459;SDS011;6295;49.452;8.466;2023-09-12T11:06:34;13.30;;;12.10;;
12459;SDS011;6295;49.452;8.466;2023-09-12T11:10:36;13.03;;;11.80;;
12459;SDS011;6295;49.452;8.466;2023-09-12T11:14:49;12.97;;;11.67;;
12459;SDS011;6295;49.452;8.466;2023-09-12T11:19:16;13.47;;;12.17;;
12459;SDS011;6295;49.452;8.466;2023-09-12T11:23:22;13.33;;;12.03;;
12459;SDS011;6295;49.452;8.466;2023-09-12T11:27:30;15.03;;;13.63;;
12459;SDS011;6295;49.452;8.466;2023-09-12T11:31:33;14.10;;;12.80;;
12459;SDS011;6295;49.452;8.466;2023-09-12T11:35:36;14.00;;;12.70;;
12459;SDS011;6295;49.452;8.466;2023-09-12T11:39:42;13.53;;;12.30;;
12459;SDS011;6295;49.452;8.466;2023-09-12T11:43:44;14.30;;;12.80;;
12459;SDS011;6295;49.452;8.466;2023-09-12T11:47:48;14.53;;;13.23;;
12459;SDS011;6295;49.452;8.466;2023-09-12T11:51:51;13.80;;;12.30;;
12459;SDS011;6295;49.452;8.466;2023-09-12T11:55:58;13.03;;;11.83;;
12459;SDS011;6295;49.452;8.466;2023-09-12T12:00:05;13.73;;;12.40;;
12459;SDS011;6295;49.452;8.466;2023-09-12T12:04:10;14.67;;;13.20;;
12459;SDS011;6295;49.452;8.466;2023-09-12T12:08:14;13.77;;;12.37;;
12459;SDS011;6295;49.452;8.466;2023-09-12T12:12:18;13.87;;;12.60;;
12459;SDS011;6295;49.452;8.466;2023-09-12T12:16:20;15.93;;;12.63;;
12459;SDS011;6295;49.452;8.466;2023-09-12T12:20:23;13.87;;;12.57;;
12459;SDS011;6295;49.452;8.466;2023-09-12T12:24:25;13.90;;;12.60;;
12459;SDS011;6295;49.452;8.466;2023-09-12T12:28:38;13.00;;;11.90;;
12459;SDS011;6295;49.452;8.466;2023-09-12T12:32:42;13.53;;;12.23;;
12459;SDS011;6295;49.452;8.466;2023-09-12T12:36:46;12.60;;;11.50;;
12459;SDS011;6295;49.452;8.466;2023-09-12T12:40:48;12.97;;;11.87;;
12459;SDS011;6295;49.452;8.466;2023-09-12T12:44:53;13.00;;;11.80;;
12459;SDS011;6295;49.452;8.466;2023-09-12T12:48:56;12.77;;;11.73;;
12459;SDS011;6295;49.452;8.466;2023-09-12T12:52:58;13.23;;;11.93;;
12459;SDS011;6295;49.452;8.466;2023-09-12T12:57:00;13.13;;;11.93;;
12459;SDS011;6295;49.452;8.466;2023-09-12T13:01:04;12.70;;;11.50;;
12459;SDS011;6295;49.452;8.466;2023-09-12T13:05:07;12.33;;;11.23;;
12459;SDS011;6295;49.452;8.466;2023-09-12T13:09:22;12.50;;;11.50;;
12459;SDS011;6295;49.452;8.466;2023-09-12T13:13:24;13.13;;;12.03;;
12459;SDS011;6295;49.452;8.466;2023-09-12T13:17:28;12.97;;;11.77;;
12459;SDS011;6295;49.452;8.466;2023-09-12T13:21:30;13.00;;;11.90;;
12459;SDS011;6295;49.452;8.466;2023-09-12T13:25:33;13.67;;;12.43;;
12459;SDS011;6295;49.452;8.466;2023-09-12T13:29:35;13.40;;;12.13;;
12459;SDS011;6295;49.452;8.466;2023-09-12T13:33:40;13.47;;;11.90;;
12459;SDS011;6295;49.452;8.466;2023-09-12T13:37:43;13.33;;;11.67;;
12459;SDS011;6295;49.452;8.466;2023-09-12T13:41:47;13.00;;;11.80;;
12459;SDS011;6295;49.452;8.466;2023-09-12T13:45:50;12.23;;;10.77;;
12459;SDS011;6295;49.452;8.466;2023-09-12T13:49:54;13.10;;;11.77;;
12459;SDS011;6295;49.452;8.466;2023-09-12T13:53:56;12.80;;;10.87;;
12459;SDS011;6295;49.452;8.466;2023-09-12T13:57:58;12.87;;;11.77;;
12459;SDS011;6295;49.452;8.466;2023-09-12T14:02:01;12.47;;;11.30;;
12459;SDS011;6295;49.452;8.466;2023-09-12T14:06:04;12.87;;;11.67;;
12459;SDS011;6295;49.452;8.466;2023-09-12T14:10:06;12.37;;;11.27;;
12459;SDS011;6295;49.452;8.466;2023-09-12T14:14:09;11.83;;;10.77;;
12459;SDS011;6295;49.452;8.466;2023-09-12T14:18:11;13.03;;;11.67;;
12459;SDS011;6295;49.452;8.466;2023-09-12T14:22:15;12.00;;;11.00;;
12459;SDS011;6295;49.452;8.466;2023-09-12T14:26:17;12.07;;;10.97;;
12459;SDS011;6295;49.452;8.466;2023-09-12T14:30:19;12.13;;;11.03;;
12459;SDS011;6295;49.452;8.466;2023-09-12T14:34:22;12.43;;;11.17;;
12459;SDS011;6295;49.452;8.466;2023-09-12T14:38:28;11.80;;;10.70;;
12459;SDS011;6295;49.452;8.466;2023-09-12T14:42:30;11.97;;;10.87;;
12459;SDS011;6295;49.452;8.466;2023-09-12T14:46:32;13.30;;;12.17;;
12459;SDS011;6295;49.452;8.466;2023-09-12T14:50:34;13.07;;;11.87;;
12459;SDS011;6295;49.452;8.466;2023-09-12T14:54:38;12.83;;;11.70;;
12459;SDS011;6295;49.452;8.466;2023-09-12T14:58:40;13.80;;;12.50;;
12459;SDS011;6295;49.452;8.466;2023-09-12T15:02:42;12.80;;;11.23;;
12459;SDS011;6295;49.452;8.466;2023-09-12T15:06:44;12.70;;;11.60;;
12459;SDS011;6295;49.452;8.466;2023-09-12T15:10:47;12.63;;;11.53;;
12459;SDS011;6295;49.452;8.466;2023-09-12T15:14:50;12.73;;;11.53;;
12459;SDS011;6295;49.452;8.466;2023-09-12T15:18:52;11.93;;;10.93;;
12459;SDS011;6295;49.452;8.466;2023-09-12T15:22:54;12.33;;;11.23;;
12459;SDS011;6295;49.452;8.466;2023-09-12T15:26:58;11.90;;;10.90;;
12459;SDS011;6295;49.452;8.466;2023-09-12T15:31:00;11.17;;;10.27;;
12459;SDS011;6295;49.452;8.466;2023-09-12T15:35:05;11.63;;;10.70;;
12459;SDS011;6295;49.452;8.466;2023-09-12T15:39:10;11.00;;;10.10;;
12459;SDS011;6295;49.452;8.466;2023-09-12T15:43:14;11.67;;;10.67;;
12459;SDS011;6295;49.452;8.466;2023-09-12T15:47:17;11.40;;;10.40;;
12459;SDS011;6295;49.452;8.466;2023-09-12T15:51:20;11.23;;;10.33;;
12459;SDS011;6295;49.452;8.466;2023-09-12T15:55:25;11.27;;;10.33;;
12459;SDS011;6295;49.452;8.466;2023-09-12T15:59:30;11.37;;;10.33;;
12459;SDS011;6295;49.452;8.466;2023-09-12T16:03:34;11.80;;;10.70;;
12459;SDS011;6295;49.452;8.466;2023-09-12T16:07:36;11.00;;;10.10;;
12459;SDS011;6295;49.452;8.466;2023-09-12T16:11:39;11.17;;;10.27;;
12459;SDS011;6295;49.452;8.466;2023-09-12T16:15:44;11.33;;;10.33;;
12459;SDS011;6295;49.452;8.466;2023-09-12T16:19:46;11.20;;;10.17;;
12459;SDS011;6295;49.452;8.466;2023-09-12T16:23:51;11.77;;;10.67;;
12459;SDS011;6295;49.452;8.466;2023-09-12T16:27:57;11.37;;;10.47;;
12459;SDS011;6295;49.452;8.466;2023-09-12T16:32:05;12.27;;;11.07;;
12459;SDS011;6295;49.452;8.466;2023-09-12T16:36:09;13.10;;;11.90;;
12459;SDS011;6295;49.452;8.466;2023-09-12T16:40:14;13.07;;;11.97;;
12459;SDS011;6295;49.452;8.466;2023-09-12T16:44:18;13.30;;;12.00;;
12459;SDS011;6295;49.452;8.466;2023-09-12T16:48:24;12.80;;;11.47;;
12459;SDS011;6295;49.452;8.466;2023-09-12T16:52:30;11.43;;;10.53;;
12459;SDS011;6295;49.452;8.466;2023-09-12T16:56:34;11.80;;;10.77;;
12459;SDS011;6295;49.452;8.466;2023-09-12T17:00:38;11.80;;;10.60;;
12459;SDS011;6295;49.452;8.466;2023-09-12T17:04:47;11.97;;;10.87;;
12459;SDS011;6295;49.452;8.466;2023-09-12T17:08:50;11.17;;;10.17;;
12459;SDS011;6295;49.452;8.466;2023-09-12T17:12:54;11.03;;;10.13;;
12459;SDS011;6295;49.452;8.466;2023-09-12T17:17:00;11.57;;;10.50;;
12459;SDS011;6295;49.452;8.466;2023-09-12T17:21:07;12.50;;;10.50;;
12459;SDS011;6295;49.452;8.466;2023-09-12T17:25:09;11.00;;;10.07;;
12459;SDS011;6295;49.452;8.466;2023-09-12T17:29:13;10.83;;;9.90;;
12459;SDS011;6295;49.452;8.466;2023-09-12T17:33:15;10.37;;;9.47;;
12459;SDS011;6295;49.452;8.466;2023-09-12T17:37:19;12.27;;;8.77;;
12459;SDS011;6295;49.452;8.466;2023-09-12T17:41:24;9.93;;;8.93;;
12459;SDS011;6295;49.452;8.466;2023-09-12T17:45:27;9.77;;;8.77;;
12459;SDS011;6295;49.452;8.466;2023-09-12T17:49:30;10.80;;;9.80;;
12459;SDS011;6295;49.452;8.466;2023-09-12T17:53:34;11.67;;;10.00;;
12459;SDS011;6295;49.452;8.466;2023-09-12T17:57:36;13.53;;;11.13;;
12459;SDS011;6295;49.452;8.466;2023-09-12T18:01:38;14.17;;;11.20;;
12459;SDS011;6295;49.452;8.466;2023-09-12T18:05:41;11.90;;;10.80;;
12459;SDS011;6295;49.452;8.466;2023-09-12T18:09:50;13.27;;;11.23;;
12459;SDS011;6295;49.452;8.466;2023-09-12T18:13:53;12.43;;;11.10;;
12459;SDS011;6295;49.452;8.466;2023-09-12T18:17:55;12.40;;;11.30;;
12459;SDS011;6295;49.452;8.466;2023-09-12T18:21:58;12.67;;;10.70;;
12459;SDS011;6295;49.452;8.466;2023-09-12T18:26:02;12.00;;;10.80;;
12459;SDS011;6295;49.452;8.466;2023-09-12T18:30:06;11.70;;;10.60;;
12459;SDS011;6295;49.452;8.466;2023-09-12T18:34:10;10.97;;;9.97;;
12459;SDS011;6295;49.452;8.466;2023-09-12T18:38:12;11.17;;;10.17;;
12459;SDS011;6295;49.452;8.466;2023-09-12T18:42:17;10.13;;;9.23;;
12459;SDS011;6295;49.452;8.466;2023-09-12T18:46:19;10.50;;;9.53;;
12459;SDS011;6295;49.452;8.466;2023-09-12T18:50:22;10.30;;;9.30;;
12459;SDS011;6295;49.452;8.466;2023-09-12T18:54:26;10.30;;;9.40;;
